Time;durP1;ratioP1;P1;durP2;ratioP2;P2;SDS_P1;SDS_P2;PMS_P1;PMS_P2;Temp;Humidity;BMP_temperature;BMP_pressure;BME280_temperature;BME280_humidity;BME280_pressure;Samples;Min_cycle;Max_cycle;Signal;HPM_P1;HPM_P2
2022/04/29 00:01:33;;;;;;;5.07;2.90;;;21.10;99.90;;;;;;5029772;28;20195;-83
2022/04/29 00:04:05;;;;;;;3.42;2.58;;;21.10;99.90;;;;;;5033110;28;20281;-83
2022/04/29 00:06:36;;;;;;;5.25;2.80;;;21.10;99.90;;;;;;5032685;28;20596;-84
2022/04/29 00:09:07;;;;;;;5.80;2.90;;;21.10;99.90;;;;;;5028014;28;20195;-83
2022/04/29 00:11:37;;;;;;;3.72;2.50;;;21.20;99.90;;;;;;5023129;28;20256;-78
2022/04/29 00:14:08;;;;;;;3.53;2.55;;;21.30;99.90;;;;;;5023364;28;20244;-78
2022/04/29 00:16:39;;;;;;;3.33;2.25;;;21.30;99.90;;;;;;5030619;28;20273;-78
2022/04/29 00:19:11;;;;;;;3.08;2.03;;;21.40;99.90;;;;;;5029195;28;20535;-77
2022/04/29 00:21:43;;;;;;;2.88;1.88;;;21.60;99.90;;;;;;5033117;28;20570;-77
2022/04/29 00:24:14;;;;;;;3.17;1.80;;;21.60;99.90;;;;;;5033119;28;20248;-80
2022/04/29 00:26:46;;;;;;;2.38;1.63;;;21.70;99.90;;;;;;5033554;28;20221;-80
2022/04/29 00:29:17;;;;;;;3.08;1.90;;;21.70;99.90;;;;;;5032732;28;20241;-79
2022/04/29 00:31:47;;;;;;;4.57;2.00;;;21.70;99.90;;;;;;5031569;28;20194;-79
2022/04/29 00:34:20;;;;;;;4.72;1.73;;;21.70;99.90;;;;;;5029903;28;20213;-81
2022/04/29 00:36:51;;;;;;;2.50;1.48;;;21.70;99.90;;;;;;5031821;28;20205;-83
2022/04/29 00:39:23;;;;;;;4.68;1.80;;;21.70;99.90;;;;;;5028907;28;20206;-79
2022/04/29 00:41:54;;;;;;;5.35;2.00;;;21.70;99.90;;;;;;5032009;28;20197;-84
2022/04/29 00:44:24;;;;;;;3.83;1.70;;;21.70;99.90;;;;;;5032155;28;20194;-78
2022/04/29 00:46:55;;;;;;;3.00;1.70;;;21.80;99.90;;;;;;5029105;28;20237;-79
2022/04/29 00:49:28;;;;;;;4.28;1.73;;;21.90;99.90;;;;;;5021810;28;20606;-79
2022/04/29 00:51:58;;;;;;;3.33;2.30;;;22.10;99.90;;;;;;5026237;28;20222;-79
2022/04/29 00:54:32;;;;;;;2.40;2.00;;;22.30;99.90;;;;;;5030286;28;20234;-81
2022/04/29 00:57:04;;;;;;;3.72;2.10;;;22.40;99.90;;;;;;5027341;28;20214;-78
2022/04/29 00:59:49;;;;;;;4.10;2.40;;;22.50;99.90;;;;;;5027584;28;20248;-80
2022/04/29 01:02:19;;;;;;;2.60;2.10;;;22.70;99.90;;;;;;5026925;28;20205;-79
2022/04/29 01:05:00;;;;;;;5.00;2.10;;;22.80;99.90;;;;;;5027853;28;20607;-83
2022/04/29 01:07:32;;;;;;;2.83;1.60;;;22.90;99.90;;;;;;5025659;28;20229;-82
2022/04/29 01:10:03;;;;;;;3.00;2.00;;;23.00;99.90;;;;;;5030233;28;20670;-80
2022/04/29 01:12:36;;;;;;;3.05;1.65;;;23.00;99.90;;;;;;5031023;28;20209;-81
2022/04/29 01:15:09;;;;;;;2.30;1.60;;;23.00;99.90;;;;;;5028612;28;20205;-82
2022/04/29 01:17:40;;;;;;;2.33;1.52;;;22.90;99.90;;;;;;5029235;28;20198;-79
2022/04/29 01:20:15;;;;;;;4.10;2.03;;;22.90;99.90;;;;;;5026801;28;20216;-82
2022/04/29 01:22:48;;;;;;;2.90;1.85;;;22.90;99.90;;;;;;5025052;28;20679;-81
2022/04/29 01:25:18;;;;;;;2.60;1.83;;;22.80;99.90;;;;;;5025798;28;20199;-80
2022/04/29 01:27:49;;;;;;;3.92;2.10;;;22.70;99.90;;;;;;5031536;28;20226;-77
2022/04/29 01:30:20;;;;;;;2.75;1.88;;;22.70;99.90;;;;;;5018539;28;20199;-82
2022/04/29 01:32:51;;;;;;;4.18;1.80;;;22.70;99.90;;;;;;5028095;28;20216;-84
2022/04/29 01:35:21;;;;;;;1.98;1.50;;;22.70;99.90;;;;;;5029641;28;20195;-79
2022/04/29 01:37:54;;;;;;;1.58;1.35;;;22.80;99.90;;;;;;5029834;28;20203;-79
2022/04/29 01:40:25;;;;;;;3.10;1.50;;;22.80;99.90;;;;;;5028397;28;20668;-77
2022/04/29 01:42:55;;;;;;;2.50;1.60;;;22.80;99.90;;;;;;5019082;28;20199;-79
2022/04/29 01:45:26;;;;;;;3.65;1.80;;;22.80;99.90;;;;;;5024438;28;20216;-82
2022/04/29 01:47:57;;;;;;;2.67;1.63;;;22.90;99.90;;;;;;5025735;28;20688;-83
2022/04/29 01:50:28;;;;;;;2.88;1.70;;;23.00;99.90;;;;;;5026574;28;20244;-82
2022/04/29 01:53:00;;;;;;;4.03;2.47;;;23.00;99.90;;;;;;5030302;28;20238;-81
2022/04/29 01:55:31;;;;;;;2.33;1.80;;;23.10;99.90;;;;;;5031170;28;20198;-86
2022/04/29 01:58:02;;;;;;;15.13;9.40;;;23.20;99.90;;;;;;5028378;28;20194;-86
2022/04/29 02:00:32;;;;;;;9.68;5.82;;;23.20;99.90;;;;;;5030715;28;20205;-78
2022/04/29 02:03:03;;;;;;;17.83;11.75;;;23.30;99.90;;;;;;5032462;28;20195;-84
2022/04/29 02:05:34;;;;;;;18.83;12.60;;;23.30;99.90;;;;;;5027329;28;20206;-81
2022/04/29 02:08:09;;;;;;;3.58;2.05;;;23.30;99.90;;;;;;5025615;28;20223;-79
2022/04/29 02:10:40;;;;;;;7.18;4.88;;;23.30;99.90;;;;;;5027577;28;20190;-82
2022/04/29 02:13:11;;;;;;;2.83;1.88;;;23.30;99.90;;;;;;5026790;28;20205;-84
2022/04/29 02:15:42;;;;;;;5.40;3.30;;;23.30;99.90;;;;;;5030826;28;20197;-82
2022/04/29 02:18:12;;;;;;;2.72;2.13;;;23.40;99.90;;;;;;5033392;28;20202;-86
2022/04/29 02:20:43;;;;;;;2.45;1.80;;;23.40;99.90;;;;;;5035405;28;20733;-81
2022/04/29 02:23:16;;;;;;;2.38;1.90;;;23.50;99.90;;;;;;5028593;28;20666;-79
2022/04/29 02:25:47;;;;;;;2.95;1.80;;;23.60;99.90;;;;;;5035075;28;20183;-75
2022/04/29 02:28:17;;;;;;;4.82;1.60;;;23.60;99.90;;;;;;5031524;28;20272;-81
2022/04/29 02:30:48;;;;;;;1.90;1.40;;;23.70;99.90;;;;;;5031557;28;20206;-79
2022/04/29 02:33:18;;;;;;;2.88;1.60;;;23.90;99.90;;;;;;5032675;28;20596;-81
2022/04/29 02:35:49;;;;;;;4.03;1.80;;;23.80;99.90;;;;;;5030959;28;20210;-76
2022/04/29 02:38:22;;;;;;;4.38;1.40;;;24.00;99.90;;;;;;5029975;28;20253;-79
2022/04/29 02:40:54;;;;;;;3.15;1.40;;;24.00;99.90;;;;;;5026125;28;20190;-80
2022/04/29 02:43:25;;;;;;;1.95;1.38;;;24.20;99.90;;;;;;5034268;28;20205;-78
2022/04/29 02:45:55;;;;;;;3.78;1.50;;;24.30;99.90;;;;;;5034866;28;20190;-78
2022/04/29 02:48:26;;;;;;;1.33;1.20;;;24.30;99.90;;;;;;5030189;28;20274;-79
2022/04/29 02:50:56;;;;;;;2.08;1.35;;;24.40;99.90;;;;;;5032874;28;20205;-77
2022/04/29 02:53:29;;;;;;;2.13;1.25;;;24.50;99.90;;;;;;5033797;28;20234;-80
2022/04/29 02:56:00;;;;;;;3.17;1.50;;;24.60;99.90;;;;;;5031498;28;20194;-83
2022/04/29 02:58:30;;;;;;;1.83;1.30;;;24.80;99.90;;;;;;5034387;28;20190;-83
2022/04/29 03:01:01;;;;;;;3.33;1.42;;;24.80;99.90;;;;;;5030187;28;20217;-82
2022/04/29 03:03:32;;;;;;;3.00;1.35;;;24.80;99.90;;;;;;5027888;28;20561;-81
2022/04/29 03:06:03;;;;;;;2.50;1.40;;;24.60;99.90;;;;;;5030217;28;20290;-81
2022/04/29 03:08:36;;;;;;;5.63;1.60;;;24.50;99.90;;;;;;5032604;28;20214;-80
2022/04/29 03:11:06;;;;;;;5.13;2.33;;;24.40;99.90;;;;;;5031663;28;20202;-80
2022/04/29 03:13:37;;;;;;;12.80;3.58;;;24.30;99.90;;;;;;5026935;28;20537;-81
2022/04/29 03:16:08;;;;;;;2.85;1.60;;;24.30;99.90;;;;;;5031524;28;20209;-84
2022/04/29 03:18:39;;;;;;;3.67;1.50;;;24.40;99.90;;;;;;5034061;28;20190;-84
2022/04/29 03:21:11;;;;;;;5.45;1.77;;;24.40;99.90;;;;;;5030099;28;20682;-84
2022/04/29 03:23:44;;;;;;;5.68;1.67;;;24.60;99.90;;;;;;5029199;28;20191;-85
2022/04/29 03:26:15;;;;;;;13.75;4.40;;;24.80;99.90;;;;;;5028465;28;20582;-85
2022/04/29 03:28:46;;;;;;;7.07;1.70;;;24.80;99.90;;;;;;5028508;28;20194;-82
2022/04/29 03:31:16;;;;;;;2.83;1.30;;;25.00;99.90;;;;;;5031398;28;20198;-83
2022/04/29 03:33:47;;;;;;;3.40;1.50;;;25.00;99.90;;;;;;5030575;28;20205;-82
2022/04/29 03:36:18;;;;;;;2.92;1.60;;;25.10;99.90;;;;;;5032898;28;20198;-84
2022/04/29 03:38:50;;;;;;;1.58;1.02;;;25.20;99.90;;;;;;5032410;28;20197;-81
2022/04/29 03:41:21;;;;;;;2.00;1.40;;;25.20;99.90;;;;;;5031660;28;20665;-84
2022/04/29 03:43:52;;;;;;;1.65;1.40;;;25.20;99.90;;;;;;5027475;28;20248;-82
2022/04/29 03:46:22;;;;;;;1.45;1.20;;;25.30;99.90;;;;;;5030936;28;20194;-83
2022/04/29 03:51:39;;;;;;;3.65;1.60;;;25.30;99.90;;;;;;5026831;28;20236;-82
2022/04/29 03:54:12;;;;;;;1.88;1.30;;;25.40;99.90;;;;;;5027605;28;20241;-79
2022/04/29 03:56:43;;;;;;;3.00;1.50;;;25.40;99.90;;;;;;5031725;28;20190;-83
2022/04/29 03:59:13;;;;;;;3.13;1.70;;;25.40;99.90;;;;;;5032027;28;20202;-82
2022/04/29 04:01:44;;;;;;;3.38;1.48;;;25.40;99.90;;;;;;5032717;28;20252;-83
2022/04/29 04:04:15;;;;;;;3.60;1.48;;;25.30;99.90;;;;;;5031778;28;20662;-84
2022/04/29 04:07:00;;;;;;;2.50;1.42;;;25.30;99.90;;;;;;5033063;28;20186;-83
2022/04/29 04:09:33;;;;;;;3.10;1.23;;;25.30;99.90;;;;;;5033309;28;20190;-83
2022/04/29 04:12:04;;;;;;;2.70;1.40;;;25.30;99.90;;;;;;5032387;28;20190;-85
2022/04/29 04:14:34;;;;;;;2.15;1.40;;;25.50;99.90;;;;;;5029614;28;20649;-84
2022/04/29 04:17:05;;;;;;;3.53;1.50;;;25.60;99.90;;;;;;5024037;28;20194;-85
2022/04/29 04:19:36;;;;;;;2.15;1.48;;;25.70;99.90;;;;;;5030316;28;20244;-83
2022/04/29 04:22:07;;;;;;;1.88;1.30;;;25.70;99.90;;;;;;5033556;28;20210;-85
2022/04/29 04:24:40;;;;;;;2.53;1.40;;;25.90;99.90;;;;;;5030481;28;20183;-82
2022/04/29 04:27:10;;;;;;;2.55;1.60;;;25.90;99.90;;;;;;5029303;28;20213;-82
2022/04/29 04:29:44;;;;;;;4.43;2.00;;;25.90;99.90;;;;;;5027971;28;20609;-84
2022/04/29 04:32:14;;;;;;;2.55;1.55;;;25.90;99.90;;;;;;5028274;28;20209;-83
2022/04/29 04:34:54;;;;;;;4.03;1.65;;;25.90;99.90;;;;;;5032621;28;20266;-84
2022/04/29 04:37:26;;;;;;;2.90;1.65;;;25.90;99.90;;;;;;5031643;28;20265;-77
2022/04/29 04:40:00;;;;;;;3.35;1.70;;;25.90;99.90;;;;;;5031706;28;20192;-78
2022/04/29 04:42:31;;;;;;;2.65;1.75;;;25.90;99.90;;;;;;5028592;28;20557;-80
2022/04/29 04:45:03;;;;;;;2.15;1.77;;;25.80;99.90;;;;;;5025535;28;20190;-78
2022/04/29 04:47:34;;;;;;;5.63;3.80;;;25.70;99.90;;;;;;5032400;28;20207;-79
2022/04/29 04:50:04;;;;;;;7.40;2.70;;;25.70;99.90;;;;;;5032681;28;20197;-78
2022/04/29 04:52:35;;;;;;;4.15;2.10;;;25.70;99.90;;;;;;5031082;28;20252;-79
2022/04/29 04:55:10;;;;;;;5.35;2.20;;;25.70;99.90;;;;;;5032006;28;20210;-78
2022/04/29 04:57:41;;;;;;;4.22;2.00;;;25.80;99.90;;;;;;5031366;28;20230;-82
2022/04/29 05:00:12;;;;;;;4.88;1.60;;;25.70;99.90;;;;;;5029485;28;20194;-82
2022/04/29 05:02:43;;;;;;;3.28;1.80;;;25.70;99.90;;;;;;5031198;28;20252;-82
2022/04/29 05:05:14;;;;;;;3.58;1.60;;;25.70;99.90;;;;;;5030834;28;20202;-84
2022/04/29 05:07:45;;;;;;;4.80;1.58;;;25.80;99.90;;;;;;5029869;28;20210;-81
2022/04/29 05:10:18;;;;;;;5.47;1.70;;;25.80;99.90;;;;;;5031433;28;20554;-83
2022/04/29 05:12:49;;;;;;;8.45;1.70;;;25.80;99.90;;;;;;5031041;28;20198;-83
2022/04/29 05:15:20;;;;;;;5.18;1.90;;;25.80;99.90;;;;;;5032769;28;20248;-80
2022/04/29 05:17:50;;;;;;;6.25;1.92;;;25.80;99.90;;;;;;5030264;28;20217;-79
2022/04/29 05:20:21;;;;;;;4.57;1.80;;;25.70;99.90;;;;;;5024570;28;20248;-78
2022/04/29 05:22:52;;;;;;;4.95;1.90;;;25.60;99.90;;;;;;5028693;28;20193;-79
2022/04/29 05:25:24;;;;;;;3.38;1.83;;;25.40;99.90;;;;;;5028381;28;20240;-78
2022/04/29 05:27:55;;;;;;;4.43;1.75;;;25.30;99.90;;;;;;5029199;28;20241;-81
2022/04/29 05:30:25;;;;;;;3.28;1.80;;;25.20;99.90;;;;;;5027682;28;20190;-81
2022/04/29 05:32:56;;;;;;;5.10;1.75;;;25.20;99.90;;;;;;5032004;28;20195;-81
2022/04/29 05:35:27;;;;;;;4.13;2.10;;;25.20;99.90;;;;;;5030254;28;20190;-80
2022/04/29 05:37:58;;;;;;;3.78;2.03;;;25.10;99.90;;;;;;5032070;28;20191;-82
2022/04/29 05:43:18;;;;;;;3.58;1.75;;;25.10;99.90;;;;;;5030580;28;20704;-80
2022/04/29 05:45:48;;;;;;;3.75;1.80;;;25.00;99.90;;;;;;5024712;28;20198;-79
2022/04/29 05:48:19;;;;;;;3.03;2.05;;;25.00;99.90;;;;;;5029173;28;20221;-80
2022/04/29 05:50:50;;;;;;;3.47;2.00;;;24.90;99.90;;;;;;5034418;28;20210;-80
2022/04/29 05:53:21;;;;;;;4.80;2.35;;;24.80;99.90;;;;;;5034007;28;20641;-78
2022/04/29 05:55:53;;;;;;;4.00;2.00;;;24.80;99.90;;;;;;5033566;28;20264;-77
2022/04/29 05:58:24;;;;;;;6.80;1.90;;;24.80;99.90;;;;;;5034645;28;20202;-81
2022/04/29 06:00:58;;;;;;;4.82;2.10;;;24.80;99.90;;;;;;5034799;28;20256;-76
2022/04/29 06:03:28;;;;;;;4.72;1.77;;;24.80;99.90;;;;;;5034192;28;20198;-79
2022/04/29 06:05:59;;;;;;;4.88;2.05;;;24.80;99.90;;;;;;5035612;28;20257;-78
2022/04/29 06:08:30;;;;;;;2.95;1.80;;;24.80;99.90;;;;;;5029103;28;20281;-80
2022/04/29 06:11:02;;;;;;;4.32;2.05;;;24.70;99.90;;;;;;5024488;28;20195;-81
2022/04/29 06:13:33;;;;;;;4.30;1.88;;;24.70;99.90;;;;;;5034167;28;20600;-81
2022/04/29 06:16:04;;;;;;;5.68;1.92;;;24.60;99.90;;;;;;5034851;28;20575;-81
2022/04/29 06:18:34;;;;;;;3.42;2.25;;;24.50;99.90;;;;;;5034282;28;20186;-79
2022/04/29 06:21:05;;;;;;;4.68;2.05;;;24.40;99.90;;;;;;5035064;28;20201;-79
2022/04/29 06:23:36;;;;;;;5.63;2.00;;;24.40;99.90;;;;;;5031673;28;20190;-78
2022/04/29 06:26:09;;;;;;;4.70;2.10;;;24.40;99.90;;;;;;5032956;28;20264;-77
2022/04/29 06:28:39;;;;;;;4.72;2.00;;;24.40;99.90;;;;;;5032572;28;20245;-78
2022/04/29 06:31:10;;;;;;;4.00;2.20;;;24.40;99.90;;;;;;5035344;28;20194;-79
2022/04/29 06:33:41;;;;;;;7.72;2.55;;;24.40;99.90;;;;;;5032522;28;20191;-78
2022/04/29 06:36:11;;;;;;;3.88;2.30;;;24.40;99.90;;;;;;5032016;28;20202;-80
2022/04/29 06:38:42;;;;;;;4.68;2.13;;;24.40;99.90;;;;;;5023649;28;20191;-80
2022/04/29 06:41:15;;;;;;;4.82;2.30;;;24.40;99.90;;;;;;5032585;28;20186;-80
2022/04/29 06:43:45;;;;;;;4.03;2.08;;;24.30;99.90;;;;;;5034134;28;20201;-80
2022/04/29 06:46:17;;;;;;;3.10;2.20;;;24.30;99.90;;;;;;5035867;28;20574;-79
2022/04/29 06:48:49;;;;;;;3.55;2.30;;;24.30;99.90;;;;;;5033086;28;20215;-81
2022/04/29 06:51:19;;;;;;;5.95;2.20;;;24.30;99.90;;;;;;5035122;28;20646;-79
2022/04/29 06:53:51;;;;;;;4.80;2.58;;;24.20;99.90;;;;;;5024378;28;20304;-79
2022/04/29 06:56:23;;;;;;;5.72;2.33;;;24.10;99.90;;;;;;5035510;28;20237;-79
2022/04/29 06:58:54;;;;;;;6.28;2.75;;;24.10;99.90;;;;;;5019610;28;20257;-79
2022/04/29 07:01:24;;;;;;;6.32;3.20;;;24.00;99.90;;;;;;5015784;28;20575;-79
2022/04/29 07:03:55;;;;;;;5.72;3.30;;;24.00;99.90;;;;;;5028850;28;20221;-79
2022/04/29 07:06:26;;;;;;;6.30;3.80;;;23.90;99.90;;;;;;5028857;28;20194;-80
2022/04/29 07:08:56;;;;;;;7.90;3.80;;;23.80;99.90;;;;;;5020315;28;20225;-79
2022/04/29 07:11:31;;;;;;;6.97;3.60;;;23.80;99.90;;;;;;5026540;28;20203;-79
2022/04/29 07:14:02;;;;;;;6.65;3.65;;;23.70;99.90;;;;;;5029285;28;20675;-78
2022/04/29 07:16:33;;;;;;;11.57;3.83;;;23.60;99.90;;;;;;5034541;28;20191;-80
2022/04/29 07:19:03;;;;;;;6.65;3.80;;;23.60;99.90;;;;;;5024826;28;20697;-79
2022/04/29 07:21:34;;;;;;;9.35;5.53;;;23.50;99.90;;;;;;5026916;28;20194;-78
2022/04/29 07:24:05;;;;;;;9.70;4.97;;;23.40;99.90;;;;;;5033092;28;20201;-75
2022/04/29 07:26:39;;;;;;;11.45;6.05;;;23.40;99.90;;;;;;5034381;28;20195;-79
2022/04/29 07:29:10;;;;;;;12.75;7.07;;;23.30;99.90;;;;;;5032270;28;20225;-75
2022/04/29 07:31:41;;;;;;;13.10;5.93;;;23.30;99.90;;;;;;5033059;28;20202;-75
2022/04/29 07:34:11;;;;;;;10.55;5.53;;;23.20;99.90;;;;;;5034156;28;20607;-74
2022/04/29 07:42:17;;;;;;;10.10;4.53;;;23.10;99.90;;;;;;5025558;28;20193;-78
2022/04/29 07:44:48;;;;;;;13.13;4.57;;;23.00;99.90;;;;;;5028278;28;20607;-80
2022/04/29 07:47:18;;;;;;;8.07;4.10;;;23.00;99.90;;;;;;5024653;28;20194;-80
2022/04/29 07:49:49;;;;;;;8.95;4.18;;;23.00;99.90;;;;;;5033079;28;20228;-78
2022/04/29 07:52:20;;;;;;;6.43;4.35;;;22.90;99.90;;;;;;5026033;28;20224;-79
2022/04/29 07:54:50;;;;;;;11.00;5.00;;;22.90;99.90;;;;;;5029043;28;20229;-76
2022/04/29 07:57:23;;;;;;;8.30;4.78;;;22.90;99.90;;;;;;5028938;28;20256;-80
2022/04/29 07:59:53;;;;;;;9.50;4.93;;;22.90;99.90;;;;;;5032085;28;20264;-80
2022/04/29 08:02:24;;;;;;;8.93;4.80;;;22.80;99.90;;;;;;5029733;28;20661;-78
2022/04/29 08:04:56;;;;;;;10.60;4.90;;;22.80;99.90;;;;;;5031056;28;20591;-79
2022/04/29 08:07:26;;;;;;;10.38;4.82;;;22.80;99.90;;;;;;5033566;28;20305;-79
2022/04/29 08:09:57;;;;;;;9.07;4.97;;;22.80;99.90;;;;;;5031437;28;20646;-79
2022/04/29 08:12:30;;;;;;;8.68;4.20;;;22.70;99.90;;;;;;5030949;28;20206;-81
2022/04/29 08:15:00;;;;;;;7.90;4.57;;;22.70;99.90;;;;;;5030919;28;20194;-80
2022/04/29 08:17:31;;;;;;;9.23;4.68;;;22.60;99.90;;;;;;5027598;28;20205;-79
2022/04/29 08:20:02;;;;;;;9.27;4.88;;;22.60;99.90;;;;;;5032371;28;20206;-75
2022/04/29 08:22:33;;;;;;;8.68;5.22;;;22.60;99.90;;;;;;5033169;28;20596;-79
2022/04/29 08:25:03;;;;;;;8.02;4.97;;;22.60;99.90;;;;;;5031043;28;20195;-79
2022/04/29 08:27:36;;;;;;;9.40;5.35;;;22.50;99.90;;;;;;5029485;28;20213;-80
2022/04/29 08:30:08;;;;;;;9.40;5.47;;;22.50;99.90;;;;;;5029148;28;20264;-80
2022/04/29 08:32:43;;;;;;;7.57;5.53;;;22.50;99.90;;;;;;5030728;28;20630;-80
2022/04/29 08:35:14;;;;;;;12.65;6.25;;;22.40;99.90;;;;;;5030297;28;20198;-79
2022/04/29 08:37:46;;;;;;;11.18;6.55;;;22.40;99.90;;;;;;5031048;28;20201;-77
2022/04/29 08:40:16;;;;;;;12.50;6.05;;;22.40;99.90;;;;;;5030746;28;20205;-79
2022/04/29 08:42:49;;;;;;;13.98;6.50;;;22.40;99.90;;;;;;5024683;28;20195;-79
2022/04/29 08:45:21;;;;;;;11.55;6.25;;;22.30;99.90;;;;;;5023008;28;20252;-79
2022/04/29 08:47:51;;;;;;;9.50;6.35;;;22.30;99.90;;;;;;5029477;28;20206;-79
2022/04/29 08:50:23;;;;;;;9.45;5.72;;;22.30;99.90;;;;;;5026721;28;20226;-78
2022/04/29 08:52:54;;;;;;;11.00;5.97;;;22.30;99.90;;;;;;5031911;28;20249;-80
2022/04/29 09:01:05;;;;;;;11.02;5.80;;;22.10;99.90;;;;;;5021415;28;20200;-80
2022/04/29 09:03:36;;;;;;;10.20;5.65;;;22.20;99.90;;;;;;5033272;28;20190;-79
2022/04/29 09:06:08;;;;;;;12.70;6.03;;;22.10;99.90;;;;;;5030632;28;20252;-80
2022/04/29 09:08:45;;;;;;;9.05;5.30;;;22.10;99.90;;;;;;5029616;28;20692;-78
2022/04/29 09:11:22;;;;;;;11.30;4.88;;;22.10;99.90;;;;;;5024368;28;20202;-78
2022/04/29 09:13:56;;;;;;;8.70;5.13;;;22.10;99.90;;;;;;5025291;28;20248;-79
2022/04/29 09:16:26;;;;;;;8.02;4.80;;;22.10;99.90;;;;;;5030388;28;20685;-79
2022/04/29 09:18:58;;;;;;;9.57;5.15;;;22.10;99.90;;;;;;5030256;28;20230;-79
2022/04/29 09:21:30;;;;;;;9.75;4.97;;;22.00;99.90;;;;;;5030410;28;20198;-79
2022/04/29 09:24:03;;;;;;;11.05;4.90;;;22.00;99.90;;;;;;5032970;28;20198;-79
2022/04/29 09:26:37;;;;;;;7.35;4.50;;;22.00;99.90;;;;;;5035232;28;20210;-79
2022/04/29 09:29:19;;;;;;;10.10;5.20;;;21.90;99.90;;;;;;5035273;28;20259;-78
2022/04/29 09:31:54;;;;;;;9.90;4.70;;;21.90;99.90;;;;;;5035720;28;20664;-79
2022/04/29 09:34:25;;;;;;;6.22;4.43;;;21.90;99.90;;;;;;5035798;28;20767;-79
2022/04/29 09:36:55;;;;;;;9.75;4.97;;;21.90;99.90;;;;;;5024711;28;20205;-79
2022/04/29 09:39:27;;;;;;;9.02;5.20;;;21.90;99.90;;;;;;5028485;28;20202;-78
2022/04/29 09:41:59;;;;;;;8.68;5.07;;;21.90;99.90;;;;;;5036959;28;20558;-80
2022/04/29 09:44:35;;;;;;;10.48;4.63;;;21.90;99.90;;;;;;5032691;28;20214;-77
2022/04/29 09:47:14;;;;;;;10.50;4.70;;;21.90;99.90;;;;;;5025687;28;20236;-78
2022/04/29 09:49:54;;;;;;;8.57;4.28;;;21.90;99.90;;;;;;5019397;28;20693;-79
2022/04/29 09:52:26;;;;;;;7.30;4.53;;;21.90;99.90;;;;;;5031202;28;20299;-78
2022/04/29 09:55:10;;;;;;;7.38;4.10;;;21.90;99.90;;;;;;5034956;28;20201;-78
2022/04/29 09:57:51;;;;;;;7.38;4.40;;;21.80;99.90;;;;;;5033478;28;20213;-78
2022/04/29 10:00:24;;;;;;;7.93;4.53;;;21.90;99.90;;;;;;5023394;28;20210;-78
2022/04/29 10:02:55;;;;;;;9.23;4.20;;;21.90;99.90;;;;;;5034873;28;20277;-78
2022/04/29 10:05:26;;;;;;;7.45;4.38;;;21.90;99.90;;;;;;5034146;28;20671;-79
2022/04/29 10:07:59;;;;;;;9.35;4.53;;;21.80;99.90;;;;;;5023288;28;20198;-80
2022/04/29 10:10:33;;;;;;;6.70;4.38;;;21.80;99.90;;;;;;5027211;28;20220;-74
2022/04/29 10:13:05;;;;;;;7.22;4.28;;;21.80;99.90;;;;;;5034374;28;20654;-78
2022/04/29 10:15:40;;;;;;;8.15;4.70;;;21.80;99.90;;;;;;5033514;28;20650;-79
2022/04/29 10:21:18;;;;;;;5.10;3.75;;;21.80;99.90;;;;;;5035456;28;20209;-79
2022/04/29 10:23:50;;;;;;;8.60;4.43;;;21.70;99.90;;;;;;5030209;28;20198;-79
2022/04/29 10:26:22;;;;;;;7.50;4.28;;;21.70;99.90;;;;;;5023167;28;20241;-78
2022/04/29 10:28:54;;;;;;;5.30;3.70;;;21.70;99.90;;;;;;5035654;28;20214;-78
2022/04/29 10:31:30;;;;;;;7.78;3.90;;;21.70;99.90;;;;;;5029082;28;20195;-78
2022/04/29 10:34:29;;;;;;;7.75;4.07;;;21.70;99.90;;;;;;5033669;28;20194;-79
2022/04/29 10:37:01;;;;;;;7.90;4.10;;;21.60;99.90;;;;;;5026879;28;20226;-77
2022/04/29 10:39:31;;;;;;;5.63;3.67;;;21.60;99.90;;;;;;5030840;28;20206;-78
2022/04/29 10:42:03;;;;;;;5.70;3.70;;;21.60;99.90;;;;;;5020664;28;20206;-78
2022/04/29 10:44:34;;;;;;;7.45;3.88;;;21.60;99.90;;;;;;5026956;28;20237;-79
2022/04/29 10:47:38;;;;;;;8.18;4.05;;;21.60;99.90;;;;;;5023281;28;20195;-78
2022/04/29 10:50:39;;;;;;;8.63;4.10;;;21.50;99.90;;;;;;5034061;28;20222;-79
2022/04/29 10:53:13;;;;;;;10.52;3.88;;;21.50;99.90;;;;;;5032493;28;20238;-79
2022/04/29 10:55:44;;;;;;;7.20;3.53;;;21.50;99.90;;;;;;5034160;28;20199;-78
2022/04/29 10:58:23;;;;;;;6.07;3.40;;;21.50;99.90;;;;;;5034568;28;20194;-79
2022/04/29 11:01:23;;;;;;;6.80;3.58;;;21.50;99.90;;;;;;5033336;28;20198;-78
2022/04/29 11:03:56;;;;;;;6.43;3.70;;;21.60;99.90;;;;;;5024258;28;20198;-79
2022/04/29 11:06:40;;;;;;;5.97;3.72;;;21.60;99.90;;;;;;5030574;28;20202;-80
2022/04/29 11:09:28;;;;;;;7.05;3.70;;;21.60;99.90;;;;;;5031620;28;20672;-79
2022/04/29 11:11:59;;;;;;;5.07;3.40;;;21.60;99.90;;;;;;5031146;28;20363;-80
2022/04/29 11:14:30;;;;;;;5.85;3.47;;;21.60;99.90;;;;;;5031169;28;20205;-81
2022/04/29 11:17:12;;;;;;;8.85;3.35;;;21.50;99.90;;;;;;5033240;28;20776;-78
2022/04/29 11:19:48;;;;;;;5.50;3.42;;;21.50;99.90;;;;;;5020958;28;20665;-79
2022/04/29 11:25:10;;;;;;;5.35;3.20;;;21.50;99.90;;;;;;5030050;28;20668;-80
2022/04/29 11:27:41;;;;;;;5.70;3.00;;;21.40;99.90;;;;;;5031027;28;20637;-79
2022/04/29 11:30:14;;;;;;;6.35;3.20;;;21.40;99.90;;;;;;5033843;28;20214;-78
2022/04/29 11:32:45;;;;;;;6.28;3.20;;;21.40;99.90;;;;;;5031326;28;20692;-79
2022/04/29 11:35:17;;;;;;;6.85;3.33;;;21.40;99.90;;;;;;5028927;28;20214;-79
2022/04/29 11:37:52;;;;;;;5.72;3.30;;;21.40;99.90;;;;;;5030081;28;20268;-80
2022/04/29 11:40:23;;;;;;;5.60;3.10;;;21.40;99.90;;;;;;5027968;28;20206;-79
2022/04/29 11:42:54;;;;;;;6.30;2.60;;;21.40;99.90;;;;;;5034812;28;20252;-79
2022/04/29 11:45:25;;;;;;;5.90;3.00;;;21.40;99.90;;;;;;5034491;28;20593;-79
2022/04/29 11:48:06;;;;;;;4.65;2.67;;;21.50;99.90;;;;;;5027986;28;20191;-79
2022/04/29 11:50:39;;;;;;;5.35;2.78;;;21.50;99.90;;;;;;5029967;28;20321;-79
2022/04/29 11:53:14;;;;;;;3.33;2.70;;;21.50;99.90;;;;;;5031222;28;20317;-79
2022/04/29 11:55:44;;;;;;;6.28;2.72;;;21.50;99.90;;;;;;5030941;28;20198;-79
2022/04/29 11:58:15;;;;;;;5.03;2.75;;;21.50;99.90;;;;;;5031653;28;20715;-80
2022/04/29 12:00:52;;;;;;;4.32;2.85;;;21.40;99.90;;;;;;5030527;28;20199;-80
2022/04/29 12:03:24;;;;;;;3.85;2.80;;;21.40;99.90;;;;;;5033067;28;20197;-80
2022/04/29 12:05:56;;;;;;;9.13;2.90;;;21.50;99.90;;;;;;5026795;28;20213;-80
2022/04/29 12:08:27;;;;;;;4.65;2.72;;;21.40;99.90;;;;;;5028148;28;20195;-80
2022/04/29 12:10:57;;;;;;;5.25;2.72;;;21.50;99.90;;;;;;5031309;28;20257;-80
2022/04/29 12:13:28;;;;;;;7.53;3.03;;;21.50;99.90;;;;;;5030682;28;20190;-80
2022/04/29 12:15:59;;;;;;;6.93;3.22;;;21.50;99.90;;;;;;5032551;28;20198;-79
2022/04/29 12:18:45;;;;;;;4.15;2.63;;;21.40;99.90;;;;;;5025345;28;20203;-79
2022/04/29 12:21:24;;;;;;;4.88;2.55;;;21.40;99.90;;;;;;5027551;28;20264;-79
2022/04/29 12:23:55;;;;;;;5.68;3.13;;;21.40;99.90;;;;;;5025617;28;20209;-79
2022/04/29 12:26:26;;;;;;;3.78;2.60;;;21.40;99.90;;;;;;5031740;28;20202;-80
2022/04/29 12:28:58;;;;;;;4.07;2.70;;;21.40;99.90;;;;;;5031730;28;20205;-79
2022/04/29 12:37:10;;;;;;;3.78;2.47;;;21.40;99.90;;;;;;5033006;28;20226;-80
2022/04/29 12:39:43;;;;;;;5.25;2.65;;;21.30;99.90;;;;;;5022978;28;20202;-79
2022/04/29 12:42:15;;;;;;;4.55;2.70;;;21.30;99.90;;;;;;5028737;28;20198;-79
2022/04/29 12:45:11;;;;;;;6.00;2.95;;;21.30;99.90;;;;;;5031423;28;20186;-80
2022/04/29 12:47:43;;;;;;;3.35;2.78;;;21.30;99.90;;;;;;5027978;28;20206;-80
2022/04/29 12:50:23;;;;;;;6.78;2.80;;;21.20;99.90;;;;;;5028592;28;20225;-79
2022/04/29 12:52:59;;;;;;;4.97;2.90;;;21.20;99.90;;;;;;5028897;28;20237;-80
2022/04/29 12:55:31;;;;;;;4.78;2.97;;;21.20;99.90;;;;;;5031509;28;20205;-79
2022/04/29 12:58:10;;;;;;;5.05;2.83;;;21.20;99.90;;;;;;5031010;28;20598;-80
2022/04/29 13:00:42;;;;;;;3.45;2.90;;;21.20;99.90;;;;;;5029579;28;20202;-79
2022/04/29 13:03:18;;;;;;;5.78;2.70;;;21.20;99.90;;;;;;5027788;28;20251;-78
2022/04/29 13:05:49;;;;;;;5.55;2.90;;;21.20;99.90;;;;;;5031269;28;20220;-79
2022/04/29 13:08:22;;;;;;;4.03;2.90;;;21.20;99.90;;;;;;5031533;28;20229;-79
2022/04/29 13:10:54;;;;;;;5.63;3.00;;;21.10;99.90;;;;;;5028666;28;20276;-79
2022/04/29 13:13:26;;;;;;;5.85;2.97;;;21.10;99.90;;;;;;5031644;28;20206;-79
2022/04/29 13:15:56;;;;;;;5.15;3.10;;;21.10;99.90;;;;;;5032670;28;20218;-78
2022/04/29 13:18:28;;;;;;;4.75;2.75;;;21.10;99.90;;;;;;5031560;28;20646;-79
2022/04/29 13:20:59;;;;;;;4.35;2.70;;;21.10;99.90;;;;;;5028295;28;20285;-79
2022/04/29 13:23:32;;;;;;;4.95;2.85;;;21.10;99.90;;;;;;5030959;28;20200;-79
2022/04/29 13:26:03;;;;;;;3.70;3.20;;;21.10;99.90;;;;;;5031457;28;20196;-79
2022/04/29 13:28:35;;;;;;;5.30;2.90;;;21.10;99.90;;;;;;5032145;28;20282;-79
2022/04/29 13:31:06;;;;;;;4.15;2.58;;;21.10;99.90;;;;;;5028761;28;20222;-80
2022/04/29 13:33:37;;;;;;;4.43;2.72;;;21.10;99.90;;;;;;5024903;28;20233;-79
2022/04/29 13:36:10;;;;;;;4.22;2.90;;;21.10;99.90;;;;;;5030811;28;20199;-79
2022/04/29 13:38:43;;;;;;;5.72;3.10;;;21.10;99.90;;;;;;5026610;28;20669;-79
2022/04/29 13:41:13;;;;;;;4.78;2.85;;;21.10;99.90;;;;;;5028463;28;20190;-79